sensor_id;sensor_type;location;lat;lon;timestamp;P1;durP1;ratioP1;P2;durP2;ratioP2
71836;SDS011;59686;51.716;7.016;2023-03-01T00:02:13;5.43;;;4.80;;
71836;SDS011;59686;51.716;7.016;2023-03-01T00:04:38;6.13;;;4.87;;
71836;SDS011;59686;51.716;7.016;2023-03-01T00:07:04;5.80;;;4.87;;
71836;SDS011;59686;51.716;7.016;2023-03-01T00:09:30;6.43;;;4.60;;
71836;SDS011;59686;51.716;7.016;2023-03-01T00:11:55;7.23;;;4.87;;
71836;SDS011;59686;51.716;7.016;2023-03-01T00:14:21;6.67;;;4.37;;
71836;SDS011;59686;51.716;7.016;2023-03-01T00:16:47;5.30;;;4.47;;
71836;SDS011;59686;51.716;7.016;2023-03-01T00:19:14;4.47;;;3.93;;
71836;SDS011;59686;51.716;7.016;2023-03-01T00:21:44;8.10;;;4.47;;
71836;SDS011;59686;51.716;7.016;2023-03-01T00:24:10;6.03;;;4.40;;
71836;SDS011;59686;51.716;7.016;2023-03-01T00:26:36;5.60;;;4.30;;
71836;SDS011;59686;51.716;7.016;2023-03-01T00:29:02;5.93;;;4.50;;
71836;SDS011;59686;51.716;7.016;2023-03-01T00:31:29;5.97;;;4.50;;
71836;SDS011;59686;51.716;7.016;2023-03-01T00:33:57;5.10;;;4.23;;
71836;SDS011;59686;51.716;7.016;2023-03-01T00:36:28;5.23;;;4.43;;
71836;SDS011;59686;51.716;7.016;2023-03-01T00:38:56;6.17;;;4.30;;
71836;SDS011;59686;51.716;7.016;2023-03-01T00:41:22;5.33;;;3.83;;
71836;SDS011;59686;51.716;7.016;2023-03-01T00:43:48;6.40;;;4.40;;
71836;SDS011;59686;51.716;7.016;2023-03-01T00:46:18;5.80;;;4.17;;
71836;SDS011;59686;51.716;7.016;2023-03-01T00:48:45;4.83;;;4.17;;
71836;SDS011;59686;51.716;7.016;2023-03-01T00:51:13;5.37;;;4.37;;
71836;SDS011;59686;51.716;7.016;2023-03-01T00:53:43;4.80;;;4.30;;
71836;SDS011;59686;51.716;7.016;2023-03-01T00:56:10;4.83;;;4.10;;
71836;SDS011;59686;51.716;7.016;2023-03-01T01:01:21;6.93;;;3.97;;
71836;SDS011;59686;51.716;7.016;2023-03-01T01:06:27;5.80;;;4.10;;
71836;SDS011;59686;51.716;7.016;2023-03-01T01:09:13;4.83;;;3.80;;
71836;SDS011;59686;51.716;7.016;2023-03-01T01:11:44;5.03;;;4.10;;
71836;SDS011;59686;51.716;7.016;2023-03-01T01:14:15;5.40;;;3.87;;
71836;SDS011;59686;51.716;7.016;2023-03-01T01:16:42;4.53;;;3.90;;
71836;SDS011;59686;51.716;7.016;2023-03-01T01:19:09;4.67;;;3.80;;
71836;SDS011;59686;51.716;7.016;2023-03-01T01:21:38;5.53;;;3.70;;
71836;SDS011;59686;51.716;7.016;2023-03-01T01:24:05;4.37;;;3.80;;
71836;SDS011;59686;51.716;7.016;2023-03-01T01:26:31;5.63;;;4.37;;
71836;SDS011;59686;51.716;7.016;2023-03-01T01:28:58;4.83;;;3.97;;
71836;SDS011;59686;51.716;7.016;2023-03-01T01:31:26;5.53;;;4.57;;
71836;SDS011;59686;51.716;7.016;2023-03-01T01:33:53;4.90;;;3.70;;
71836;SDS011;59686;51.716;7.016;2023-03-01T01:36:19;6.20;;;4.30;;
71836;SDS011;59686;51.716;7.016;2023-03-01T01:38:45;6.10;;;3.80;;
71836;SDS011;59686;51.716;7.016;2023-03-01T01:41:12;6.00;;;4.37;;
71836;SDS011;59686;51.716;7.016;2023-03-01T01:43:40;5.13;;;3.97;;
71836;SDS011;59686;51.716;7.016;2023-03-01T01:46:14;4.83;;;3.57;;
71836;SDS011;59686;51.716;7.016;2023-03-01T01:48:52;5.37;;;4.17;;
71836;SDS011;59686;51.716;7.016;2023-03-01T01:51:23;4.37;;;3.60;;
71836;SDS011;59686;51.716;7.016;2023-03-01T01:53:53;4.07;;;3.67;;
71836;SDS011;59686;51.716;7.016;2023-03-01T01:56:23;4.40;;;3.63;;
71836;SDS011;59686;51.716;7.016;2023-03-01T01:58:50;5.23;;;4.07;;
71836;SDS011;59686;51.716;7.016;2023-03-01T02:01:16;5.30;;;4.00;;
71836;SDS011;59686;51.716;7.016;2023-03-01T02:03:42;4.13;;;3.80;;
71836;SDS011;59686;51.716;7.016;2023-03-01T02:09:07;4.60;;;3.77;;
71836;SDS011;59686;51.716;7.016;2023-03-01T02:11:36;5.37;;;3.97;;
71836;SDS011;59686;51.716;7.016;2023-03-01T02:14:02;5.23;;;3.80;;
71836;SDS011;59686;51.716;7.016;2023-03-01T02:16:28;4.43;;;4.03;;
71836;SDS011;59686;51.716;7.016;2023-03-01T02:18:56;4.83;;;3.97;;
71836;SDS011;59686;51.716;7.016;2023-03-01T02:21:28;4.40;;;3.80;;
71836;SDS011;59686;51.716;7.016;2023-03-01T02:24:32;5.50;;;3.77;;
71836;SDS011;59686;51.716;7.016;2023-03-01T02:27:06;5.40;;;4.07;;
71836;SDS011;59686;51.716;7.016;2023-03-01T02:29:31;5.33;;;4.10;;
71836;SDS011;59686;51.716;7.016;2023-03-01T02:31:58;5.30;;;3.90;;
71836;SDS011;59686;51.716;7.016;2023-03-01T02:34:27;5.10;;;3.90;;
71836;SDS011;59686;51.716;7.016;2023-03-01T02:37:06;4.30;;;3.80;;
71836;SDS011;59686;51.716;7.016;2023-03-01T02:39:42;4.17;;;3.27;;
71836;SDS011;59686;51.716;7.016;2023-03-01T02:42:14;4.30;;;3.90;;
71836;SDS011;59686;51.716;7.016;2023-03-01T02:44:43;5.57;;;4.10;;
71836;SDS011;59686;51.716;7.016;2023-03-01T02:47:09;4.53;;;4.00;;
71836;SDS011;59686;51.716;7.016;2023-03-01T02:49:35;5.67;;;4.27;;
71836;SDS011;59686;51.716;7.016;2023-03-01T02:52:08;4.43;;;3.57;;
71836;SDS011;59686;51.716;7.016;2023-03-01T02:57:33;5.23;;;4.23;;
71836;SDS011;59686;51.716;7.016;2023-03-01T03:00:02;5.40;;;4.10;;
71836;SDS011;59686;51.716;7.016;2023-03-01T03:02:32;5.33;;;3.83;;
71836;SDS011;59686;51.716;7.016;2023-03-01T03:05:11;5.93;;;4.47;;
71836;SDS011;59686;51.716;7.016;2023-03-01T03:07:40;4.27;;;3.87;;
71836;SDS011;59686;51.716;7.016;2023-03-01T03:10:09;4.87;;;4.00;;
71836;SDS011;59686;51.716;7.016;2023-03-01T03:12:37;4.80;;;4.10;;
71836;SDS011;59686;51.716;7.016;2023-03-01T03:15:04;4.63;;;3.93;;
71836;SDS011;59686;51.716;7.016;2023-03-01T03:17:37;5.37;;;4.23;;
71836;SDS011;59686;51.716;7.016;2023-03-01T03:20:04;5.10;;;3.90;;
71836;SDS011;59686;51.716;7.016;2023-03-01T03:22:31;5.83;;;3.93;;
71836;SDS011;59686;51.716;7.016;2023-03-01T03:24:59;4.40;;;4.00;;
71836;SDS011;59686;51.716;7.016;2023-03-01T03:27:24;4.83;;;3.83;;
71836;SDS011;59686;51.716;7.016;2023-03-01T03:29:50;5.77;;;3.80;;
71836;SDS011;59686;51.716;7.016;2023-03-01T03:32:16;4.23;;;3.83;;
71836;SDS011;59686;51.716;7.016;2023-03-01T03:34:41;5.27;;;4.10;;
71836;SDS011;59686;51.716;7.016;2023-03-01T03:37:07;4.50;;;4.00;;
71836;SDS011;59686;51.716;7.016;2023-03-01T03:39:53;4.90;;;4.20;;
71836;SDS011;59686;51.716;7.016;2023-03-01T03:42:20;4.57;;;3.97;;
71836;SDS011;59686;51.716;7.016;2023-03-01T03:44:47;4.90;;;3.80;;
71836;SDS011;59686;51.716;7.016;2023-03-01T03:47:13;4.90;;;3.97;;
71836;SDS011;59686;51.716;7.016;2023-03-01T03:49:39;6.40;;;4.43;;
71836;SDS011;59686;51.716;7.016;2023-03-01T03:52:04;4.67;;;3.90;;
71836;SDS011;59686;51.716;7.016;2023-03-01T03:54:38;5.90;;;4.27;;
71836;SDS011;59686;51.716;7.016;2023-03-01T03:57:05;4.77;;;4.07;;
71836;SDS011;59686;51.716;7.016;2023-03-01T03:59:32;5.17;;;4.00;;
71836;SDS011;59686;51.716;7.016;2023-03-01T04:01:57;6.90;;;4.00;;
71836;SDS011;59686;51.716;7.016;2023-03-01T04:04:23;5.53;;;4.10;;
71836;SDS011;59686;51.716;7.016;2023-03-01T04:06:49;5.03;;;3.73;;
71836;SDS011;59686;51.716;7.016;2023-03-01T04:09:15;4.80;;;3.83;;
71836;SDS011;59686;51.716;7.016;2023-03-01T04:11:50;5.10;;;3.80;;
71836;SDS011;59686;51.716;7.016;2023-03-01T04:14:16;5.00;;;3.93;;
71836;SDS011;59686;51.716;7.016;2023-03-01T04:16:42;5.57;;;4.40;;
71836;SDS011;59686;51.716;7.016;2023-03-01T04:19:08;4.37;;;3.90;;
71836;SDS011;59686;51.716;7.016;2023-03-01T04:21:34;5.77;;;4.37;;
71836;SDS011;59686;51.716;7.016;2023-03-01T04:24:01;6.00;;;4.30;;
71836;SDS011;59686;51.716;7.016;2023-03-01T04:26:28;4.70;;;4.00;;
71836;SDS011;59686;51.716;7.016;2023-03-01T04:28:54;5.70;;;4.00;;
71836;SDS011;59686;51.716;7.016;2023-03-01T04:31:20;4.73;;;4.07;;
71836;SDS011;59686;51.716;7.016;2023-03-01T04:33:50;6.90;;;4.60;;
71836;SDS011;59686;51.716;7.016;2023-03-01T04:36:18;5.07;;;4.47;;
71836;SDS011;59686;51.716;7.016;2023-03-01T04:38:45;5.43;;;4.00;;
71836;SDS011;59686;51.716;7.016;2023-03-01T04:41:12;5.53;;;4.10;;
71836;SDS011;59686;51.716;7.016;2023-03-01T04:43:40;5.67;;;4.13;;
71836;SDS011;59686;51.716;7.016;2023-03-01T04:46:08;5.80;;;3.80;;
71836;SDS011;59686;51.716;7.016;2023-03-01T04:48:36;5.47;;;4.60;;
71836;SDS011;59686;51.716;7.016;2023-03-01T04:51:03;4.80;;;4.30;;
71836;SDS011;59686;51.716;7.016;2023-03-01T04:53:29;5.27;;;4.43;;
71836;SDS011;59686;51.716;7.016;2023-03-01T04:55:55;4.57;;;4.00;;
71836;SDS011;59686;51.716;7.016;2023-03-01T04:58:25;6.20;;;4.23;;
71836;SDS011;59686;51.716;7.016;2023-03-01T05:00:52;4.73;;;4.20;;
71836;SDS011;59686;51.716;7.016;2023-03-01T05:03:19;6.87;;;4.77;;
71836;SDS011;59686;51.716;7.016;2023-03-01T05:05:46;5.27;;;4.77;;
71836;SDS011;59686;51.716;7.016;2023-03-01T05:08:14;6.03;;;4.80;;
71836;SDS011;59686;51.716;7.016;2023-03-01T05:10:44;5.00;;;4.37;;
71836;SDS011;59686;51.716;7.016;2023-03-01T05:13:13;5.77;;;4.57;;
71836;SDS011;59686;51.716;7.016;2023-03-01T05:15:46;5.27;;;4.50;;
71836;SDS011;59686;51.716;7.016;2023-03-01T05:18:13;7.07;;;4.90;;
71836;SDS011;59686;51.716;7.016;2023-03-01T05:20:39;5.00;;;4.30;;
71836;SDS011;59686;51.716;7.016;2023-03-01T05:23:06;6.67;;;5.10;;
71836;SDS011;59686;51.716;7.016;2023-03-01T05:25:32;5.57;;;4.63;;
71836;SDS011;59686;51.716;7.016;2023-03-01T05:27:59;6.27;;;4.53;;
71836;SDS011;59686;51.716;7.016;2023-03-01T05:30:29;8.17;;;5.27;;
71836;SDS011;59686;51.716;7.016;2023-03-01T05:32:57;6.07;;;4.73;;
71836;SDS011;59686;51.716;7.016;2023-03-01T05:35:23;7.87;;;5.07;;
71836;SDS011;59686;51.716;7.016;2023-03-01T05:37:49;6.07;;;4.70;;
71836;SDS011;59686;51.716;7.016;2023-03-01T05:40:17;9.67;;;5.60;;
71836;SDS011;59686;51.716;7.016;2023-03-01T05:42:45;8.63;;;5.63;;
71836;SDS011;59686;51.716;7.016;2023-03-01T05:45:17;9.27;;;6.20;;
71836;SDS011;59686;51.716;7.016;2023-03-01T05:47:45;8.93;;;6.07;;
71836;SDS011;59686;51.716;7.016;2023-03-01T05:50:19;8.90;;;5.90;;
71836;SDS011;59686;51.716;7.016;2023-03-01T05:53:06;9.33;;;6.70;;
71836;SDS011;59686;51.716;7.016;2023-03-01T05:55:35;8.53;;;6.33;;
71836;SDS011;59686;51.716;7.016;2023-03-01T05:58:03;11.50;;;7.10;;
71836;SDS011;59686;51.716;7.016;2023-03-01T06:00:31;9.27;;;6.23;;
71836;SDS011;59686;51.716;7.016;2023-03-01T06:02:57;10.10;;;6.93;;
71836;SDS011;59686;51.716;7.016;2023-03-01T06:05:24;11.77;;;7.13;;
71836;SDS011;59686;51.716;7.016;2023-03-01T06:07:50;9.60;;;6.87;;
71836;SDS011;59686;51.716;7.016;2023-03-01T06:10:16;10.77;;;6.90;;
71836;SDS011;59686;51.716;7.016;2023-03-01T06:12:43;12.07;;;7.47;;
71836;SDS011;59686;51.716;7.016;2023-03-01T06:15:10;11.27;;;7.00;;
71836;SDS011;59686;51.716;7.016;2023-03-01T06:17:38;10.97;;;6.90;;
71836;SDS011;59686;51.716;7.016;2023-03-01T06:20:07;10.30;;;6.90;;
71836;SDS011;59686;51.716;7.016;2023-03-01T06:22:38;10.23;;;7.00;;
71836;SDS011;59686;51.716;7.016;2023-03-01T06:25:04;11.37;;;7.10;;
71836;SDS011;59686;51.716;7.016;2023-03-01T06:27:30;9.17;;;6.93;;
71836;SDS011;59686;51.716;7.016;2023-03-01T06:29:56;10.17;;;6.60;;
71836;SDS011;59686;51.716;7.016;2023-03-01T06:32:21;13.17;;;7.47;;
71836;SDS011;59686;51.716;7.016;2023-03-01T06:34:47;10.17;;;6.93;;
71836;SDS011;59686;51.716;7.016;2023-03-01T06:37:13;10.87;;;6.90;;
71836;SDS011;59686;51.716;7.016;2023-03-01T06:39:41;9.33;;;6.73;;
71836;SDS011;59686;51.716;7.016;2023-03-01T06:42:07;10.17;;;7.10;;
71836;SDS011;59686;51.716;7.016;2023-03-01T06:44:35;8.80;;;6.77;;
71836;SDS011;59686;51.716;7.016;2023-03-01T06:47:01;8.97;;;6.57;;
71836;SDS011;59686;51.716;7.016;2023-03-01T06:49:28;8.80;;;7.00;;
71836;SDS011;59686;51.716;7.016;2023-03-01T06:51:54;8.57;;;7.07;;
71836;SDS011;59686;51.716;7.016;2023-03-01T06:54:19;8.43;;;6.30;;
71836;SDS011;59686;51.716;7.016;2023-03-01T06:56:47;8.87;;;6.60;;
71836;SDS011;59686;51.716;7.016;2023-03-01T06:59:13;9.10;;;6.27;;
71836;SDS011;59686;51.716;7.016;2023-03-01T07:01:39;11.03;;;6.50;;
71836;SDS011;59686;51.716;7.016;2023-03-01T07:04:04;7.70;;;6.17;;
71836;SDS011;59686;51.716;7.016;2023-03-01T07:06:30;7.47;;;6.17;;
71836;SDS011;59686;51.716;7.016;2023-03-01T07:08:58;8.43;;;6.53;;
71836;SDS011;59686;51.716;7.016;2023-03-01T07:11:23;7.27;;;6.20;;
71836;SDS011;59686;51.716;7.016;2023-03-01T07:13:49;9.97;;;6.23;;
71836;SDS011;59686;51.716;7.016;2023-03-01T07:16:15;12.13;;;6.70;;
71836;SDS011;59686;51.716;7.016;2023-03-01T07:18:41;7.47;;;6.07;;
71836;SDS011;59686;51.716;7.016;2023-03-01T07:21:07;8.70;;;6.60;;
71836;SDS011;59686;51.716;7.016;2023-03-01T07:23:34;9.30;;;5.97;;
71836;SDS011;59686;51.716;7.016;2023-03-01T07:26:00;8.50;;;6.00;;
71836;SDS011;59686;51.716;7.016;2023-03-01T07:28:26;8.60;;;5.97;;
71836;SDS011;59686;51.716;7.016;2023-03-01T07:30:52;8.80;;;6.30;;
71836;SDS011;59686;51.716;7.016;2023-03-01T07:33:18;8.10;;;6.67;;
71836;SDS011;59686;51.716;7.016;2023-03-01T07:35:43;9.13;;;6.27;;
71836;SDS011;59686;51.716;7.016;2023-03-01T07:38:09;9.27;;;6.90;;
71836;SDS011;59686;51.716;7.016;2023-03-01T07:40:35;9.27;;;6.70;;
71836;SDS011;59686;51.716;7.016;2023-03-01T07:43:00;6.57;;;5.73;;
71836;SDS011;59686;51.716;7.016;2023-03-01T07:45:27;8.40;;;6.40;;
71836;SDS011;59686;51.716;7.016;2023-03-01T07:47:53;8.57;;;6.00;;
71836;SDS011;59686;51.716;7.016;2023-03-01T07:50:20;8.93;;;5.73;;
71836;SDS011;59686;51.716;7.016;2023-03-01T07:52:47;7.97;;;6.27;;
71836;SDS011;59686;51.716;7.016;2023-03-01T07:55:14;8.00;;;5.97;;
71836;SDS011;59686;51.716;7.016;2023-03-01T07:57:40;9.07;;;6.30;;
71836;SDS011;59686;51.716;7.016;2023-03-01T08:00:07;8.53;;;6.13;;
71836;SDS011;59686;51.716;7.016;2023-03-01T08:02:35;7.77;;;5.77;;
71836;SDS011;59686;51.716;7.016;2023-03-01T08:05:01;8.10;;;6.00;;
71836;SDS011;59686;51.716;7.016;2023-03-01T08:07:27;8.57;;;6.10;;
71836;SDS011;59686;51.716;7.016;2023-03-01T08:09:52;7.43;;;5.77;;
71836;SDS011;59686;51.716;7.016;2023-03-01T08:12:18;7.40;;;5.43;;
71836;SDS011;59686;51.716;7.016;2023-03-01T08:14:44;8.03;;;5.47;;
71836;SDS011;59686;51.716;7.016;2023-03-01T08:17:10;8.07;;;6.03;;
71836;SDS011;59686;51.716;7.016;2023-03-01T08:19:38;7.47;;;5.33;;
71836;SDS011;59686;51.716;7.016;2023-03-01T08:22:03;6.67;;;5.27;;
71836;SDS011;59686;51.716;7.016;2023-03-01T08:24:29;6.80;;;5.60;;
71836;SDS011;59686;51.716;7.016;2023-03-01T08:26:55;8.20;;;5.63;;
71836;SDS011;59686;51.716;7.016;2023-03-01T08:29:21;6.47;;;5.20;;
71836;SDS011;59686;51.716;7.016;2023-03-01T08:31:47;8.30;;;5.77;;
71836;SDS011;59686;51.716;7.016;2023-03-01T08:34:13;9.20;;;5.47;;
71836;SDS011;59686;51.716;7.016;2023-03-01T08:36:42;6.50;;;4.77;;
71836;SDS011;59686;51.716;7.016;2023-03-01T08:39:10;6.73;;;5.37;;
71836;SDS011;59686;51.716;7.016;2023-03-01T08:41:37;6.83;;;5.10;;
71836;SDS011;59686;51.716;7.016;2023-03-01T08:44:04;6.40;;;5.00;;
71836;SDS011;59686;51.716;7.016;2023-03-01T08:46:32;6.13;;;5.47;;
71836;SDS011;59686;51.716;7.016;2023-03-01T08:49:03;6.70;;;4.97;;
71836;SDS011;59686;51.716;7.016;2023-03-01T08:51:33;9.07;;;5.83;;
71836;SDS011;59686;51.716;7.016;2023-03-01T08:54:20;8.17;;;5.73;;
71836;SDS011;59686;51.716;7.016;2023-03-01T08:56:47;6.63;;;5.07;;
71836;SDS011;59686;51.716;7.016;2023-03-01T08:59:13;6.33;;;4.93;;
71836;SDS011;59686;51.716;7.016;2023-03-01T09:01:40;7.23;;;5.37;;
71836;SDS011;59686;51.716;7.016;2023-03-01T09:04:08;7.43;;;5.00;;
71836;SDS011;59686;51.716;7.016;2023-03-01T09:06:35;7.10;;;5.20;;
71836;SDS011;59686;51.716;7.016;2023-03-01T09:09:00;6.63;;;5.10;;
71836;SDS011;59686;51.716;7.016;2023-03-01T09:11:27;6.67;;;5.00;;
71836;SDS011;59686;51.716;7.016;2023-03-01T09:13:53;6.53;;;4.97;;
71836;SDS011;59686;51.716;7.016;2023-03-01T09:16:20;7.87;;;5.20;;
71836;SDS011;59686;51.716;7.016;2023-03-01T09:18:53;7.47;;;4.93;;
71836;SDS011;59686;51.716;7.016;2023-03-01T09:21:20;7.67;;;5.10;;
71836;SDS011;59686;51.716;7.016;2023-03-01T09:23:48;5.37;;;4.57;;
71836;SDS011;59686;51.716;7.016;2023-03-01T09:26:18;7.63;;;4.83;;
71836;SDS011;59686;51.716;7.016;2023-03-01T09:28:47;5.67;;;4.87;;
71836;SDS011;59686;51.716;7.016;2023-03-01T09:31:14;6.30;;;4.33;;
71836;SDS011;59686;51.716;7.016;2023-03-01T09:33:47;5.20;;;4.50;;
71836;SDS011;59686;51.716;7.016;2023-03-01T09:36:20;7.97;;;5.17;;
71836;SDS011;59686;51.716;7.016;2023-03-01T09:38:47;5.57;;;4.40;;
71836;SDS011;59686;51.716;7.016;2023-03-01T09:44:01;6.33;;;5.07;;
71836;SDS011;59686;51.716;7.016;2023-03-01T09:46:37;6.80;;;5.27;;
71836;SDS011;59686;51.716;7.016;2023-03-01T09:49:12;7.97;;;5.13;;
71836;SDS011;59686;51.716;7.016;2023-03-01T09:51:47;5.53;;;4.50;;
71836;SDS011;59686;51.716;7.016;2023-03-01T09:54:22;6.10;;;5.10;;
71836;SDS011;59686;51.716;7.016;2023-03-01T10:08:26;6.17;;;4.90;;
71836;SDS011;59686;51.716;7.016;2023-03-01T10:11:05;7.23;;;4.40;;
71836;SDS011;59686;51.716;7.016;2023-03-01T10:19:12;5.30;;;4.57;;
71836;SDS011;59686;51.716;7.016;2023-03-01T10:21:46;5.97;;;4.60;;
71836;SDS011;59686;51.716;7.016;2023-03-01T10:24:14;6.80;;;5.10;;
71836;SDS011;59686;51.716;7.016;2023-03-01T10:26:57;6.97;;;4.40;;
71836;SDS011;59686;51.716;7.016;2023-03-01T10:29:31;5.93;;;4.30;;
71836;SDS011;59686;51.716;7.016;2023-03-01T10:32:04;6.87;;;4.67;;
71836;SDS011;59686;51.716;7.016;2023-03-01T10:34:33;8.20;;;4.60;;
71836;SDS011;59686;51.716;7.016;2023-03-01T10:37:04;6.47;;;4.40;;
71836;SDS011;59686;51.716;7.016;2023-03-01T10:39:55;6.60;;;4.40;;
71836;SDS011;59686;51.716;7.016;2023-03-01T10:42:28;6.00;;;4.57;;
71836;SDS011;59686;51.716;7.016;2023-03-01T10:44:58;5.80;;;4.40;;
71836;SDS011;59686;51.716;7.016;2023-03-01T10:48:11;5.53;;;4.00;;
71836;SDS011;59686;51.716;7.016;2023-03-01T10:50:51;5.93;;;4.33;;
71836;SDS011;59686;51.716;7.016;2023-03-01T10:53:37;7.43;;;4.60;;
71836;SDS011;59686;51.716;7.016;2023-03-01T10:56:14;5.70;;;4.40;;
71836;SDS011;59686;51.716;7.016;2023-03-01T10:59:03;6.70;;;4.50;;
71836;SDS011;59686;51.716;7.016;2023-03-01T11:01:44;5.57;;;4.47;;
71836;SDS011;59686;51.716;7.016;2023-03-01T11:04:13;6.87;;;4.17;;
71836;SDS011;59686;51.716;7.016;2023-03-01T11:06:40;8.87;;;4.80;;
71836;SDS011;59686;51.716;7.016;2023-03-01T11:09:13;7.77;;;4.77;;
71836;SDS011;59686;51.716;7.016;2023-03-01T11:11:41;7.60;;;4.73;;
71836;SDS011;59686;51.716;7.016;2023-03-01T11:16:45;6.37;;;4.43;;
71836;SDS011;59686;51.716;7.016;2023-03-01T11:19:18;6.97;;;4.50;;
71836;SDS011;59686;51.716;7.016;2023-03-01T11:24:19;5.70;;;4.37;;
71836;SDS011;59686;51.716;7.016;2023-03-01T11:26:56;7.57;;;5.40;;
71836;SDS011;59686;51.716;7.016;2023-03-01T11:29:32;6.53;;;4.33;;
71836;SDS011;59686;51.716;7.016;2023-03-01T11:32:09;6.33;;;4.63;;
71836;SDS011;59686;51.716;7.016;2023-03-01T11:34:38;6.80;;;4.80;;
71836;SDS011;59686;51.716;7.016;2023-03-01T11:37:40;6.60;;;4.47;;
71836;SDS011;59686;51.716;7.016;2023-03-01T11:40:16;6.20;;;4.43;;
71836;SDS011;59686;51.716;7.016;2023-03-01T11:48:34;6.93;;;4.80;;
71836;SDS011;59686;51.716;7.016;2023-03-01T11:56:40;8.00;;;4.87;;
71836;SDS011;59686;51.716;7.016;2023-03-01T12:07:32;7.60;;;5.03;;
71836;SDS011;59686;51.716;7.016;2023-03-01T12:18:41;8.00;;;5.37;;
71836;SDS011;59686;51.716;7.016;2023-03-01T12:24:01;7.70;;;5.43;;
71836;SDS011;59686;51.716;7.016;2023-03-01T12:29:16;7.73;;;5.23;;
71836;SDS011;59686;51.716;7.016;2023-03-01T12:32:08;5.73;;;4.80;;
71836;SDS011;59686;51.716;7.016;2023-03-01T12:37:58;7.83;;;5.30;;
71836;SDS011;59686;51.716;7.016;2023-03-01T12:43:17;7.50;;;5.40;;
71836;SDS011;59686;51.716;7.016;2023-03-01T12:48:54;6.40;;;5.10;;
71836;SDS011;59686;51.716;7.016;2023-03-01T12:51:37;6.60;;;5.13;;
71836;SDS011;59686;51.716;7.016;2023-03-01T12:54:26;7.93;;;5.27;;
71836;SDS011;59686;51.716;7.016;2023-03-01T12:56:55;7.47;;;5.57;;
71836;SDS011;59686;51.716;7.016;2023-03-01T12:59:28;7.57;;;5.27;;
71836;SDS011;59686;51.716;7.016;2023-03-01T13:02:20;8.33;;;5.23;;
71836;SDS011;59686;51.716;7.016;2023-03-01T13:08:07;7.63;;;5.40;;
71836;SDS011;59686;51.716;7.016;2023-03-01T13:10:47;8.50;;;6.00;;
71836;SDS011;59686;51.716;7.016;2023-03-01T13:13:19;7.90;;;5.57;;
71836;SDS011;59686;51.716;7.016;2023-03-01T13:15:47;7.03;;;5.43;;
71836;SDS011;59686;51.716;7.016;2023-03-01T13:20:48;7.13;;;5.30;;
71836;SDS011;59686;51.716;7.016;2023-03-01T13:31:09;7.47;;;5.67;;
71836;SDS011;59686;51.716;7.016;2023-03-01T13:33:59;7.13;;;5.23;;
71836;SDS011;59686;51.716;7.016;2023-03-01T13:46:56;9.17;;;5.83;;
71836;SDS011;59686;51.716;7.016;2023-03-01T13:49:28;10.63;;;6.40;;
71836;SDS011;59686;51.716;7.016;2023-03-01T13:52:13;9.13;;;6.30;;
71836;SDS011;59686;51.716;7.016;2023-03-01T13:54:50;7.70;;;6.13;;
71836;SDS011;59686;51.716;7.016;2023-03-01T13:57:19;8.27;;;6.40;;
71836;SDS011;59686;51.716;7.016;2023-03-01T13:59:49;10.60;;;6.40;;
71836;SDS011;59686;51.716;7.016;2023-03-01T14:02:16;10.20;;;5.83;;
71836;SDS011;59686;51.716;7.016;2023-03-01T14:04:42;9.33;;;6.07;;
71836;SDS011;59686;51.716;7.016;2023-03-01T14:07:20;8.47;;;6.07;;
71836;SDS011;59686;51.716;7.016;2023-03-01T14:09:53;8.93;;;5.57;;
71836;SDS011;59686;51.716;7.016;2023-03-01T14:15:21;10.20;;;6.03;;
71836;SDS011;59686;51.716;7.016;2023-03-01T14:17:55;10.13;;;6.37;;
71836;SDS011;59686;51.716;7.016;2023-03-01T14:20:30;8.90;;;5.97;;
71836;SDS011;59686;51.716;7.016;2023-03-01T14:23:02;7.17;;;5.23;;
71836;SDS011;59686;51.716;7.016;2023-03-01T14:25:36;8.20;;;5.87;;
71836;SDS011;59686;51.716;7.016;2023-03-01T14:28:37;10.73;;;5.73;;
71836;SDS011;59686;51.716;7.016;2023-03-01T14:31:02;8.27;;;5.63;;
71836;SDS011;59686;51.716;7.016;2023-03-01T14:33:54;9.13;;;6.00;;
71836;SDS011;59686;51.716;7.016;2023-03-01T14:36:25;6.73;;;5.40;;
71836;SDS011;59686;51.716;7.016;2023-03-01T14:38:52;8.10;;;5.53;;
71836;SDS011;59686;51.716;7.016;2023-03-01T14:41:20;8.03;;;5.77;;
71836;SDS011;59686;51.716;7.016;2023-03-01T14:43:49;7.47;;;5.30;;
71836;SDS011;59686;51.716;7.016;2023-03-01T14:46:39;8.07;;;5.87;;
71836;SDS011;59686;51.716;7.016;2023-03-01T14:49:15;8.87;;;5.80;;
71836;SDS011;59686;51.716;7.016;2023-03-01T14:52:03;7.13;;;5.43;;
71836;SDS011;59686;51.716;7.016;2023-03-01T14:57:16;7.50;;;5.63;;
71836;SDS011;59686;51.716;7.016;2023-03-01T14:59:44;6.83;;;5.03;;
71836;SDS011;59686;51.716;7.016;2023-03-01T15:02:13;9.63;;;5.73;;
71836;SDS011;59686;51.716;7.016;2023-03-01T15:04:48;7.43;;;5.63;;
71836;SDS011;59686;51.716;7.016;2023-03-01T15:07:16;8.47;;;5.70;;
71836;SDS011;59686;51.716;7.016;2023-03-01T15:09:42;6.43;;;4.90;;
71836;SDS011;59686;51.716;7.016;2023-03-01T15:14:51;6.53;;;5.20;;
71836;SDS011;59686;51.716;7.016;2023-03-01T15:17:31;6.60;;;5.23;;
71836;SDS011;59686;51.716;7.016;2023-03-01T15:20:02;7.83;;;5.17;;
71836;SDS011;59686;51.716;7.016;2023-03-01T15:22:31;7.10;;;5.23;;
71836;SDS011;59686;51.716;7.016;2023-03-01T15:25:00;7.20;;;5.53;;
71836;SDS011;59686;51.716;7.016;2023-03-01T15:27:26;6.50;;;5.10;;
71836;SDS011;59686;51.716;7.016;2023-03-01T15:29:59;6.37;;;5.17;;
71836;SDS011;59686;51.716;7.016;2023-03-01T15:32:34;6.30;;;4.90;;
71836;SDS011;59686;51.716;7.016;2023-03-01T15:38:26;8.70;;;5.37;;
71836;SDS011;59686;51.716;7.016;2023-03-01T15:41:29;7.57;;;5.27;;
71836;SDS011;59686;51.716;7.016;2023-03-01T15:43:57;4.63;;;3.90;;
71836;SDS011;59686;51.716;7.016;2023-03-01T15:46:26;7.50;;;4.93;;
71836;SDS011;59686;51.716;7.016;2023-03-01T15:49:01;5.87;;;4.70;;
71836;SDS011;59686;51.716;7.016;2023-03-01T15:51:35;7.53;;;5.50;;
71836;SDS011;59686;51.716;7.016;2023-03-01T15:54:18;8.10;;;5.63;;
71836;SDS011;59686;51.716;7.016;2023-03-01T15:56:46;6.70;;;5.23;;
71836;SDS011;59686;51.716;7.016;2023-03-01T15:59:16;7.87;;;5.03;;
71836;SDS011;59686;51.716;7.016;2023-03-01T16:01:42;6.20;;;4.50;;
71836;SDS011;59686;51.716;7.016;2023-03-01T16:04:13;6.47;;;4.67;;
71836;SDS011;59686;51.716;7.016;2023-03-01T16:06:53;5.87;;;4.80;;
71836;SDS011;59686;51.716;7.016;2023-03-01T16:09:25;5.87;;;4.57;;
71836;SDS011;59686;51.716;7.016;2023-03-01T16:11:51;7.70;;;5.30;;
71836;SDS011;59686;51.716;7.016;2023-03-01T16:14:18;7.37;;;5.10;;
71836;SDS011;59686;51.716;7.016;2023-03-01T16:16:44;5.40;;;4.87;;
71836;SDS011;59686;51.716;7.016;2023-03-01T16:19:11;7.53;;;5.10;;
71836;SDS011;59686;51.716;7.016;2023-03-01T16:21:37;6.40;;;4.60;;
71836;SDS011;59686;51.716;7.016;2023-03-01T16:24:10;7.40;;;5.03;;
71836;SDS011;59686;51.716;7.016;2023-03-01T16:26:36;7.07;;;5.00;;
71836;SDS011;59686;51.716;7.016;2023-03-01T16:29:02;6.07;;;4.60;;
71836;SDS011;59686;51.716;7.016;2023-03-01T16:31:28;6.30;;;4.23;;
71836;SDS011;59686;51.716;7.016;2023-03-01T16:33:57;7.50;;;5.33;;
71836;SDS011;59686;51.716;7.016;2023-03-01T16:36:25;8.00;;;5.30;;
71836;SDS011;59686;51.716;7.016;2023-03-01T16:38:53;5.73;;;4.20;;
71836;SDS011;59686;51.716;7.016;2023-03-01T16:41:21;6.57;;;4.20;;
71836;SDS011;59686;51.716;7.016;2023-03-01T16:43:48;6.07;;;4.40;;
71836;SDS011;59686;51.716;7.016;2023-03-01T16:46:16;7.43;;;4.60;;
71836;SDS011;59686;51.716;7.016;2023-03-01T16:48:44;5.40;;;4.73;;
71836;SDS011;59686;51.716;7.016;2023-03-01T16:51:11;5.80;;;4.70;;
71836;SDS011;59686;51.716;7.016;2023-03-01T16:53:39;6.07;;;4.50;;
71836;SDS011;59686;51.716;7.016;2023-03-01T16:56:06;7.27;;;4.80;;
71836;SDS011;59686;51.716;7.016;2023-03-01T16:58:34;6.13;;;5.03;;
71836;SDS011;59686;51.716;7.016;2023-03-01T17:01:11;6.07;;;4.70;;